Time;durP1;ratioP1;P1;durP2;ratioP2;P2;SDS_P1;SDS_P2;PMS_P1;PMS_P2;Temp;Humidity;BMP_temperature;BMP_pressure;BME280_temperature;BME280_humidity;BME280_pressure;Samples;Min_cycle;Max_cycle;Signal;HPM_P1;HPM_P2
2022/09/29 00:00:46;;;;;;;2.4;1.75;;;;;;;8.2;100;93931.7;;;;
2022/09/29 00:01:48;;;;;;;2.4;1.75;;;;;;;8.2;100;93931.7;;;;
2022/09/29 00:02:48;;;;;;;2.7;1.65;;;;;;;8.12;100;93937.72;;;;
2022/09/29 00:03:49;;;;;;;2.7;1.65;;;;;;;8.12;100;93937.72;;;;
2022/09/29 00:04:49;;;;;;;2.7;1.65;;;;;;;8.12;100;93937.72;;;;
2022/09/29 00:05:50;;;;;;;2.7;1.65;;;;;;;8.12;100;93937.72;;;;
2022/09/29 00:06:52;;;;;;;2.7;1.65;;;;;;;8.12;100;93937.72;;;;
2022/09/29 00:07:52;;;;;;;2.7;1.65;;;;;;;8.12;100;93937.72;;;;
2022/09/29 00:08:53;;;;;;;2.7;1.65;;;;;;;8.12;100;93937.72;;;;
2022/09/29 00:09:53;;;;;;;2.7;1.65;;;;;;;8.12;100;93937.72;;;;
2022/09/29 00:10:54;;;;;;;2.7;1.65;;;;;;;8.12;100;93937.72;;;;
2022/09/29 00:11:55;;;;;;;2.7;1.65;;;;;;;8.12;100;93937.72;;;;
2022/09/29 00:12:55;;;;;;;2.35;1.4;;;;;;;8.12;100;93935.08;;;;
2022/09/29 00:13:56;;;;;;;2.35;1.4;;;;;;;8.12;100;93935.08;;;;
2022/09/29 00:14:57;;;;;;;2.35;1.4;;;;;;;8.12;100;93935.08;;;;
2022/09/29 00:15:57;;;;;;;2.35;1.4;;;;;;;8.12;100;93935.08;;;;
2022/09/29 00:17:00;;;;;;;2.35;1.4;;;;;;;8.12;100;93935.08;;;;
2022/09/29 00:18:01;;;;;;;2.35;1.4;;;;;;;8.12;100;93935.08;;;;
2022/09/29 00:19:01;;;;;;;2.35;1.4;;;;;;;8.12;100;93935.08;;;;
2022/09/29 00:20:02;;;;;;;2.35;1.4;;;;;;;8.12;100;93935.08;;;;
2022/09/29 00:21:04;;;;;;;2.35;1.4;;;;;;;8.12;100;93935.08;;;;
2022/09/29 00:22:07;;;;;;;2.35;1.4;;;;;;;8.12;100;93935.08;;;;
2022/09/29 00:23:08;;;;;;;2.35;1.4;;;;;;;8.12;100;93935.08;;;;
2022/09/29 00:24:08;;;;;;;1.8;1.45;;;;;;;8.05;100;93947.14;;;;
2022/09/29 00:25:09;;;;;;;1.8;1.45;;;;;;;8.05;100;93947.14;;;;
2022/09/29 00:26:09;;;;;;;1.8;1.45;;;;;;;8.05;100;93947.14;;;;
2022/09/29 00:27:12;;;;;;;1.8;1.45;;;;;;;8.05;100;93947.14;;;;
2022/09/29 00:28:13;;;;;;;1.8;1.45;;;;;;;8.05;100;93947.14;;;;
2022/09/29 00:29:14;;;;;;;1.8;1.45;;;;;;;8.05;100;93947.14;;;;
2022/09/29 00:30:14;;;;;;;1.8;1.45;;;;;;;8.05;100;93947.14;;;;
2022/09/29 00:31:15;;;;;;;1.8;1.45;;;;;;;8.05;100;93947.14;;;;
2022/09/29 00:32:15;;;;;;;1.8;1.45;;;;;;;8.05;100;93947.14;;;;
2022/09/29 00:33:16;;;;;;;1.8;1.45;;;;;;;8.05;100;93947.14;;;;
2022/09/29 00:34:17;;;;;;;2.15;1.6;;;;;;;7.97;100;93935.55;;;;
2022/09/29 00:35:18;;;;;;;2.15;1.6;;;;;;;7.97;100;93935.55;;;;
2022/09/29 00:36:18;;;;;;;2.15;1.6;;;;;;;7.97;100;93935.55;;;;
2022/09/29 00:37:21;;;;;;;2.15;1.6;;;;;;;7.97;100;93935.55;;;;
2022/09/29 00:38:21;;;;;;;2.15;1.6;;;;;;;7.97;100;93935.55;;;;
2022/09/29 00:39:22;;;;;;;2.15;1.6;;;;;;;7.97;100;93935.55;;;;
2022/09/29 00:40:22;;;;;;;2.15;1.6;;;;;;;7.97;100;93935.55;;;;
2022/09/29 00:41:23;;;;;;;2.15;1.6;;;;;;;7.97;100;93935.55;;;;
2022/09/29 00:42:26;;;;;;;2.15;1.6;;;;;;;7.97;100;93935.55;;;;
2022/09/29 00:43:26;;;;;;;2.15;1.6;;;;;;;7.97;100;93935.55;;;;
2022/09/29 00:44:50;;;;;;;1.8;1.7;;;;;;;7.93;100;93927.4;;;;
2022/09/29 00:45:58;;;;;;;1.8;1.7;;;;;;;7.93;100;93927.4;;;;
2022/09/29 00:46:59;;;;;;;1.8;1.7;;;;;;;7.93;100;93927.4;;;;
2022/09/29 00:48:02;;;;;;;1.8;1.7;;;;;;;7.93;100;93927.4;;;;
2022/09/29 00:49:07;;;;;;;1.8;1.7;;;;;;;7.93;100;93927.4;;;;
2022/09/29 00:50:16;;;;;;;1.8;1.7;;;;;;;7.93;100;93927.4;;;;
2022/09/29 00:51:21;;;;;;;1.8;1.7;;;;;;;7.93;100;93927.4;;;;
2022/09/29 00:52:23;;;;;;;1.8;1.7;;;;;;;7.93;100;93927.4;;;;
2022/09/29 00:53:29;;;;;;;1.8;1.7;;;;;;;7.93;100;93927.4;;;;
2022/09/29 00:54:30;;;;;;;1.8;1.7;;;;;;;7.93;100;93927.4;;;;
2022/09/29 00:55:35;;;;;;;2.45;1.5;;;;;;;7.88;100;93911.5;;;;
2022/09/29 00:56:42;;;;;;;2.45;1.5;;;;;;;7.88;100;93911.5;;;;
2022/09/29 00:57:44;;;;;;;2.45;1.5;;;;;;;7.88;100;93911.5;;;;
2022/09/29 00:58:53;;;;;;;2.45;1.5;;;;;;;7.88;100;93911.5;;;;
2022/09/29 00:59:57;;;;;;;2.45;1.5;;;;;;;7.88;100;93911.5;;;;
2022/09/29 01:01:01;;;;;;;2.45;1.5;;;;;;;7.88;100;93911.5;;;;
2022/09/29 01:02:04;;;;;;;2.45;1.5;;;;;;;7.88;100;93911.5;;;;
2022/09/29 01:03:05;;;;;;;2.45;1.5;;;;;;;7.88;100;93911.5;;;;
2022/09/29 01:04:09;;;;;;;2.45;1.5;;;;;;;7.88;100;93911.5;;;;
2022/09/29 01:05:15;;;;;;;2.45;1.5;;;;;;;7.88;100;93911.5;;;;
2022/09/29 01:06:20;;;;;;;1.8;1.6;;;;;;;7.68;100;93897.38;;;;
2022/09/29 01:07:26;;;;;;;1.8;1.6;;;;;;;7.68;100;93897.38;;;;
2022/09/29 01:08:26;;;;;;;1.8;1.6;;;;;;;7.68;100;93897.38;;;;
2022/09/29 01:09:34;;;;;;;1.8;1.6;;;;;;;7.68;100;93897.38;;;;
2022/09/29 01:10:37;;;;;;;1.8;1.6;;;;;;;7.68;100;93897.38;;;;
2022/09/29 01:11:41;;;;;;;1.8;1.6;;;;;;;7.68;100;93897.38;;;;
2022/09/29 01:12:42;;;;;;;1.8;1.6;;;;;;;7.68;100;93897.38;;;;
2022/09/29 01:13:44;;;;;;;1.8;1.6;;;;;;;7.68;100;93897.38;;;;
2022/09/29 01:14:46;;;;;;;1.8;1.6;;;;;;;7.68;100;93897.38;;;;
2022/09/29 01:15:47;;;;;;;1.8;1.6;;;;;;;7.68;100;93897.38;;;;
2022/09/29 01:16:47;;;;;;;1.8;1.6;;;;;;;7.68;100;93897.38;;;;
2022/09/29 01:17:48;;;;;;;1.9;1.65;;;;;;;7.51;100;93897.88;;;;
2022/09/29 01:18:51;;;;;;;1.9;1.65;;;;;;;7.51;100;93897.88;;;;
2022/09/29 01:19:52;;;;;;;1.9;1.65;;;;;;;7.51;100;93897.88;;;;
2022/09/29 01:21:02;;;;;;;1.9;1.65;;;;;;;7.51;100;93897.88;;;;
2022/09/29 01:22:12;;;;;;;1.9;1.65;;;;;;;7.51;100;93897.88;;;;
2022/09/29 01:23:30;;;;;;;1.9;1.65;;;;;;;7.51;100;93897.88;;;;
2022/09/29 01:24:56;;;;;;;1.9;1.65;;;;;;;7.51;100;93897.88;;;;
2022/09/29 01:26:17;;;;;;;1.9;1.65;;;;;;;7.51;100;93897.88;;;;
2022/09/29 01:27:49;;;;;;;2.55;1.95;;;;;;;7.51;100;93903.94;;;;
2022/09/29 01:29:10;;;;;;;2.55;1.95;;;;;;;7.51;100;93903.94;;;;
2022/09/29 01:30:31;;;;;;;2.55;1.95;;;;;;;7.51;100;93903.94;;;;
2022/09/29 01:31:51;;;;;;;2.55;1.95;;;;;;;7.51;100;93903.94;;;;
2022/09/29 01:32:57;;;;;;;2.55;1.95;;;;;;;7.51;100;93903.94;;;;
2022/09/29 01:34:11;;;;;;;2.55;1.95;;;;;;;7.51;100;93903.94;;;;
2022/09/29 01:35:22;;;;;;;2.55;1.95;;;;;;;7.51;100;93903.94;;;;
2022/09/29 01:36:34;;;;;;;2.55;1.95;;;;;;;7.51;100;93903.94;;;;
2022/09/29 01:37:47;;;;;;;2.55;1.95;;;;;;;7.51;100;93903.94;;;;
2022/09/29 01:38:59;;;;;;;3.4;1.8;;;;;;;7.51;100;93898.69;;;;
2022/09/29 01:40:08;;;;;;;3.4;1.8;;;;;;;7.51;100;93898.69;;;;
2022/09/29 01:41:14;;;;;;;3.4;1.8;;;;;;;7.51;100;93898.69;;;;
2022/09/29 01:42:20;;;;;;;3.4;1.8;;;;;;;7.51;100;93898.69;;;;
2022/09/29 01:43:26;;;;;;;3.4;1.8;;;;;;;7.51;100;93898.69;;;;
2022/09/29 01:44:32;;;;;;;3.4;1.8;;;;;;;7.51;100;93898.69;;;;
2022/09/29 01:45:39;;;;;;;3.4;1.8;;;;;;;7.51;100;93898.69;;;;
2022/09/29 01:46:45;;;;;;;3.4;1.8;;;;;;;7.51;100;93898.69;;;;
2022/09/29 01:47:49;;;;;;;3.4;1.8;;;;;;;7.51;100;93898.69;;;;
2022/09/29 01:48:54;;;;;;;3.1;2;;;;;;;7.53;100;93898.46;;;;
2022/09/29 01:49:56;;;;;;;3.1;2;;;;;;;7.53;100;93898.46;;;;
2022/09/29 01:51:01;;;;;;;3.1;2;;;;;;;7.53;100;93898.46;;;;
2022/09/29 01:52:05;;;;;;;3.1;2;;;;;;;7.53;100;93898.46;;;;
2022/09/29 01:53:09;;;;;;;3.1;2;;;;;;;7.53;100;93898.46;;;;
2022/09/29 01:54:14;;;;;;;3.1;2;;;;;;;7.53;100;93898.46;;;;
2022/09/29 01:55:20;;;;;;;3.1;2;;;;;;;7.53;100;93898.46;;;;
2022/09/29 01:56:24;;;;;;;3.1;2;;;;;;;7.53;100;93898.46;;;;
2022/09/29 01:57:31;;;;;;;3.1;2;;;;;;;7.53;100;93898.46;;;;
2022/09/29 01:58:36;;;;;;;3.1;2;;;;;;;7.53;100;93898.46;;;;
2022/09/29 01:59:42;;;;;;;2.95;2;;;;;;;7.5;100;93894.06;;;;
2022/09/29 02:00:49;;;;;;;2.95;2;;;;;;;7.5;100;93894.06;;;;
2022/09/29 02:01:56;;;;;;;2.95;2;;;;;;;7.5;100;93894.06;;;;
2022/09/29 02:03:01;;;;;;;2.95;2;;;;;;;7.5;100;93894.06;;;;
2022/09/29 02:04:08;;;;;;;2.95;2;;;;;;;7.5;100;93894.06;;;;
2022/09/29 02:05:15;;;;;;;2.95;2;;;;;;;7.5;100;93894.06;;;;
2022/09/29 02:06:20;;;;;;;2.95;2;;;;;;;7.5;100;93894.06;;;;
2022/09/29 02:07:28;;;;;;;2.95;2;;;;;;;7.5;100;93894.06;;;;
2022/09/29 02:08:36;;;;;;;2.95;2;;;;;;;7.5;100;93894.06;;;;
2022/09/29 02:09:41;;;;;;;2.95;2;;;;;;;7.5;100;93894.06;;;;
2022/09/29 02:10:47;;;;;;;3.5;1.9;;;;;;;7.49;100;93898.51;;;;
2022/09/29 02:11:53;;;;;;;3.5;1.9;;;;;;;7.49;100;93898.51;;;;
2022/09/29 02:12:56;;;;;;;3.5;1.9;;;;;;;7.49;100;93898.51;;;;
2022/09/29 02:14:02;;;;;;;3.5;1.9;;;;;;;7.49;100;93898.51;;;;
2022/09/29 02:15:11;;;;;;;3.5;1.9;;;;;;;7.49;100;93898.51;;;;
2022/09/29 02:16:16;;;;;;;3.5;1.9;;;;;;;7.49;100;93898.51;;;;
2022/09/29 02:17:21;;;;;;;3.5;1.9;;;;;;;7.49;100;93898.51;;;;
2022/09/29 02:18:29;;;;;;;3.5;1.9;;;;;;;7.49;100;93898.51;;;;
2022/09/29 02:19:35;;;;;;;3.5;1.9;;;;;;;7.49;100;93898.51;;;;
2022/09/29 02:20:39;;;;;;;3.5;1.9;;;;;;;7.49;100;93898.51;;;;
2022/09/29 02:21:40;;;;;;;2.1;1.9;;;;;;;7.51;100;93893.42;;;;
2022/09/29 02:22:42;;;;;;;2.1;1.9;;;;;;;7.51;100;93893.42;;;;
2022/09/29 02:23:42;;;;;;;2.1;1.9;;;;;;;7.51;100;93893.42;;;;
2022/09/29 02:24:43;;;;;;;2.1;1.9;;;;;;;7.51;100;93893.42;;;;
2022/09/29 02:25:44;;;;;;;2.1;1.9;;;;;;;7.51;100;93893.42;;;;
2022/09/29 02:26:47;;;;;;;2.1;1.9;;;;;;;7.51;100;93893.42;;;;
2022/09/29 02:27:49;;;;;;;2.1;1.9;;;;;;;7.51;100;93893.42;;;;
2022/09/29 02:28:51;;;;;;;2.1;1.9;;;;;;;7.51;100;93893.42;;;;
2022/09/29 02:29:52;;;;;;;2.1;1.9;;;;;;;7.51;100;93893.42;;;;
2022/09/29 02:30:53;;;;;;;2.1;1.9;;;;;;;7.51;100;93893.42;;;;
2022/09/29 02:31:54;;;;;;;2.35;2.15;;;;;;;7.52;100;93895.95;;;;
2022/09/29 02:32:55;;;;;;;2.35;2.15;;;;;;;7.52;100;93895.95;;;;
2022/09/29 02:33:56;;;;;;;2.35;2.15;;;;;;;7.52;100;93895.95;;;;
2022/09/29 02:34:57;;;;;;;2.35;2.15;;;;;;;7.52;100;93895.95;;;;
2022/09/29 02:35:57;;;;;;;2.35;2.15;;;;;;;7.52;100;93895.95;;;;
2022/09/29 02:37:10;;;;;;;2.35;2.15;;;;;;;7.52;100;93895.95;;;;
2022/09/29 02:38:26;;;;;;;2.35;2.15;;;;;;;7.52;100;93895.95;;;;
2022/09/29 02:39:36;;;;;;;2.35;2.15;;;;;;;7.52;100;93895.95;;;;
2022/09/29 02:40:47;;;;;;;2.35;2.15;;;;;;;7.52;100;93895.95;;;;
2022/09/29 02:41:56;;;;;;;2.35;2.15;;;;;;;7.52;100;93895.95;;;;
2022/09/29 02:43:06;;;;;;;2;1.8;;;;;;;7.55;100;93908.11;;;;
2022/09/29 02:44:23;;;;;;;2;1.8;;;;;;;7.55;100;93908.11;;;;
2022/09/29 02:45:35;;;;;;;2;1.8;;;;;;;7.55;100;93908.11;;;;
2022/09/29 02:46:46;;;;;;;2;1.8;;;;;;;7.55;100;93908.11;;;;
2022/09/29 02:48:06;;;;;;;2;1.8;;;;;;;7.55;100;93908.11;;;;
2022/09/29 02:49:19;;;;;;;2;1.8;;;;;;;7.55;100;93908.11;;;;
2022/09/29 02:50:31;;;;;;;2;1.8;;;;;;;7.55;100;93908.11;;;;
2022/09/29 02:51:47;;;;;;;2;1.8;;;;;;;7.55;100;93908.11;;;;
2022/09/29 02:52:52;;;;;;;2.25;1.65;;;;;;;7.59;100;93902.29;;;;
2022/09/29 02:53:58;;;;;;;2.25;1.65;;;;;;;7.59;100;93902.29;;;;
2022/09/29 02:55:12;;;;;;;2.25;1.65;;;;;;;7.59;100;93902.29;;;;
2022/09/29 02:56:18;;;;;;;2.25;1.65;;;;;;;7.59;100;93902.29;;;;
2022/09/29 02:57:27;;;;;;;2.25;1.65;;;;;;;7.59;100;93902.29;;;;
2022/09/29 02:58:36;;;;;;;2.25;1.65;;;;;;;7.59;100;93902.29;;;;
2022/09/29 02:59:42;;;;;;;2.25;1.65;;;;;;;7.59;100;93902.29;;;;
2022/09/29 03:00:51;;;;;;;2.25;1.65;;;;;;;7.59;100;93902.29;;;;
2022/09/29 03:01:53;;;;;;;2.25;1.65;;;;;;;7.59;100;93902.29;;;;
2022/09/29 03:02:55;;;;;;;2.25;1.65;;;;;;;7.59;100;93902.29;;;;
2022/09/29 03:03:56;;;;;;;2.2;1.8;;;;;;;7.66;100;93886.3;;;;
2022/09/29 03:04:57;;;;;;;2.2;1.8;;;;;;;7.66;100;93886.3;;;;
2022/09/29 03:05:58;;;;;;;2.2;1.8;;;;;;;7.66;100;93886.3;;;;
2022/09/29 03:06:58;;;;;;;2.2;1.8;;;;;;;7.66;100;93886.3;;;;
2022/09/29 03:07:59;;;;;;;2.2;1.8;;;;;;;7.66;100;93886.3;;;;
2022/09/29 03:09:00;;;;;;;2.2;1.8;;;;;;;7.66;100;93886.3;;;;
2022/09/29 03:10:00;;;;;;;2.2;1.8;;;;;;;7.66;100;93886.3;;;;
2022/09/29 03:11:01;;;;;;;2.2;1.8;;;;;;;7.66;100;93886.3;;;;
2022/09/29 03:12:01;;;;;;;2.2;1.8;;;;;;;7.66;100;93886.3;;;;
2022/09/29 03:13:02;;;;;;;2.2;1.8;;;;;;;7.66;100;93886.3;;;;
2022/09/29 03:14:03;;;;;;;2.2;1.8;;;;;;;7.66;100;93886.3;;;;
2022/09/29 03:15:03;;;;;;;1.7;1.6;;;;;;;7.7;100;93887.03;;;;
2022/09/29 03:16:06;;;;;;;1.7;1.6;;;;;;;7.7;100;93887.03;;;;
2022/09/29 03:17:07;;;;;;;1.7;1.6;;;;;;;7.7;100;93887.03;;;;
2022/09/29 03:18:07;;;;;;;1.7;1.6;;;;;;;7.7;100;93887.03;;;;
2022/09/29 03:19:08;;;;;;;1.7;1.6;;;;;;;7.7;100;93887.03;;;;
2022/09/29 03:20:08;;;;;;;1.7;1.6;;;;;;;7.7;100;93887.03;;;;
2022/09/29 03:21:09;;;;;;;1.7;1.6;;;;;;;7.7;100;93887.03;;;;
2022/09/29 03:22:10;;;;;;;1.7;1.6;;;;;;;7.7;100;93887.03;;;;
2022/09/29 03:23:10;;;;;;;1.7;1.6;;;;;;;7.7;100;93887.03;;;;
2022/09/29 03:24:11;;;;;;;1.7;1.6;;;;;;;7.7;100;93887.03;;;;
2022/09/29 03:25:11;;;;;;;4.3;1.8;;;;;;;7.68;100;93879.5;;;;
2022/09/29 03:26:12;;;;;;;4.3;1.8;;;;;;;7.68;100;93879.5;;;;
2022/09/29 03:27:13;;;;;;;4.3;1.8;;;;;;;7.68;100;93879.5;;;;
2022/09/29 03:28:15;;;;;;;4.3;1.8;;;;;;;7.68;100;93879.5;;;;
2022/09/29 03:29:15;;;;;;;4.3;1.8;;;;;;;7.68;100;93879.5;;;;
2022/09/29 03:30:16;;;;;;;4.3;1.8;;;;;;;7.68;100;93879.5;;;;
2022/09/29 03:31:17;;;;;;;4.3;1.8;;;;;;;7.68;100;93879.5;;;;
2022/09/29 03:32:18;;;;;;;4.3;1.8;;;;;;;7.68;100;93879.5;;;;
2022/09/29 03:33:19;;;;;;;4.3;1.8;;;;;;;7.68;100;93879.5;;;;
2022/09/29 03:34:20;;;;;;;4.3;1.8;;;;;;;7.68;100;93879.5;;;;
2022/09/29 03:35:20;;;;;;;4.3;1.8;;;;;;;7.68;100;93879.5;;;;
2022/09/29 03:36:21;;;;;;;3.1;1.75;;;;;;;7.76;100;93883.1;;;;
2022/09/29 03:37:21;;;;;;;3.1;1.75;;;;;;;7.76;100;93883.1;;;;
2022/09/29 03:38:22;;;;;;;3.1;1.75;;;;;;;7.76;100;93883.1;;;;
2022/09/29 03:39:22;;;;;;;3.1;1.75;;;;;;;7.76;100;93883.1;;;;
2022/09/29 03:40:23;;;;;;;3.1;1.75;;;;;;;7.76;100;93883.1;;;;
2022/09/29 03:41:24;;;;;;;3.1;1.75;;;;;;;7.76;100;93883.1;;;;
2022/09/29 03:42:27;;;;;;;3.1;1.75;;;;;;;7.76;100;93883.1;;;;
2022/09/29 03:43:27;;;;;;;3.1;1.75;;;;;;;7.76;100;93883.1;;;;
2022/09/29 03:44:28;;;;;;;3.1;1.75;;;;;;;7.76;100;93883.1;;;;
2022/09/29 03:45:28;;;;;;;3.1;1.75;;;;;;;7.76;100;93883.1;;;;
2022/09/29 03:46:29;;;;;;;2.2;1.6;;;;;;;7.86;100;93863.61;;;;
2022/09/29 03:47:29;;;;;;;2.2;1.6;;;;;;;7.86;100;93863.61;;;;
2022/09/29 03:48:30;;;;;;;2.2;1.6;;;;;;;7.86;100;93863.61;;;;
2022/09/29 03:49:30;;;;;;;2.2;1.6;;;;;;;7.86;100;93863.61;;;;
2022/09/29 03:50:31;;;;;;;2.2;1.6;;;;;;;7.86;100;93863.61;;;;
2022/09/29 03:51:31;;;;;;;2.2;1.6;;;;;;;7.86;100;93863.61;;;;
2022/09/29 03:52:32;;;;;;;2.2;1.6;;;;;;;7.86;100;93863.61;;;;
2022/09/29 03:53:32;;;;;;;2.2;1.6;;;;;;;7.86;100;93863.61;;;;
2022/09/29 03:54:33;;;;;;;2.2;1.6;;;;;;;7.86;100;93863.61;;;;
2022/09/29 03:55:33;;;;;;;2.2;1.6;;;;;;;7.86;100;93863.61;;;;
2022/09/29 03:56:34;;;;;;;2.2;1.6;;;;;;;7.86;100;93863.61;;;;
2022/09/29 03:57:35;;;;;;;1.7;1.4;;;;;;;7.92;100;93879.78;;;;
2022/09/29 03:58:35;;;;;;;1.7;1.4;;;;;;;7.92;100;93879.78;;;;
2022/09/29 03:59:37;;;;;;;1.7;1.4;;;;;;;7.92;100;93879.78;;;;
2022/09/29 04:00:37;;;;;;;1.7;1.4;;;;;;;7.92;100;93879.78;;;;
2022/09/29 04:01:38;;;;;;;1.7;1.4;;;;;;;7.92;100;93879.78;;;;
2022/09/29 04:02:38;;;;;;;1.7;1.4;;;;;;;7.92;100;93879.78;;;;
2022/09/29 04:03:39;;;;;;;1.7;1.4;;;;;;;7.92;100;93879.78;;;;
2022/09/29 04:04:40;;;;;;;1.7;1.4;;;;;;;7.92;100;93879.78;;;;
2022/09/29 04:05:40;;;;;;;1.7;1.4;;;;;;;7.92;100;93879.78;;;;
2022/09/29 04:06:41;;;;;;;1.7;1.4;;;;;;;7.92;100;93879.78;;;;
2022/09/29 04:07:41;;;;;;;2;1.4;;;;;;;7.92;100;93882.81;;;;
2022/09/29 04:08:42;;;;;;;2;1.4;;;;;;;7.92;100;93882.81;;;;
2022/09/29 04:09:42;;;;;;;2;1.4;;;;;;;7.92;100;93882.81;;;;
2022/09/29 04:10:43;;;;;;;2;1.4;;;;;;;7.92;100;93882.81;;;;
2022/09/29 04:11:45;;;;;;;2;1.4;;;;;;;7.92;100;93882.81;;;;
2022/09/29 04:12:46;;;;;;;2;1.4;;;;;;;7.92;100;93882.81;;;;
2022/09/29 04:13:47;;;;;;;2;1.4;;;;;;;7.92;100;93882.81;;;;
2022/09/29 04:14:47;;;;;;;2;1.4;;;;;;;7.92;100;93882.81;;;;
2022/09/29 04:15:48;;;;;;;2;1.4;;;;;;;7.92;100;93882.81;;;;
2022/09/29 04:16:48;;;;;;;2;1.4;;;;;;;7.92;100;93882.81;;;;
2022/09/29 04:17:49;;;;;;;2;1.4;;;;;;;7.92;100;93882.81;;;;
2022/09/29 04:18:49;;;;;;;3.7;1.5;;;;;;;7.92;100;93893.33;;;;
2022/09/29 04:19:50;;;;;;;3.7;1.5;;;;;;;7.92;100;93893.33;;;;
2022/09/29 04:20:51;;;;;;;3.7;1.5;;;;;;;7.92;100;93893.33;;;;
2022/09/29 04:21:51;;;;;;;3.7;1.5;;;;;;;7.92;100;93893.33;;;;
2022/09/29 04:22:51;;;;;;;3.7;1.5;;;;;;;7.92;100;93893.33;;;;
2022/09/29 04:23:52;;;;;;;3.7;1.5;;;;;;;7.92;100;93893.33;;;;
2022/09/29 04:24:52;;;;;;;3.7;1.5;;;;;;;7.92;100;93893.33;;;;
2022/09/29 04:25:53;;;;;;;3.7;1.5;;;;;;;7.92;100;93893.33;;;;
2022/09/29 04:26:54;;;;;;;3.7;1.5;;;;;;;7.92;100;93893.33;;;;
2022/09/29 04:27:54;;;;;;;3.7;1.5;;;;;;;7.92;100;93893.33;;;;
2022/09/29 04:28:55;;;;;;;3.7;1.5;;;;;;;7.92;100;93893.33;;;;
2022/09/29 04:29:55;;;;;;;1.4;1.3;;;;;;;7.98;100;93875.81;;;;
2022/09/29 04:30:56;;;;;;;1.4;1.3;;;;;;;7.98;100;93875.81;;;;
2022/09/29 04:31:56;;;;;;;1.4;1.3;;;;;;;7.98;100;93875.81;;;;
2022/09/29 04:32:57;;;;;;;1.4;1.3;;;;;;;7.98;100;93875.81;;;;
2022/09/29 04:33:57;;;;;;;1.4;1.3;;;;;;;7.98;100;93875.81;;;;
2022/09/29 04:34:58;;;;;;;1.4;1.3;;;;;;;7.98;100;93875.81;;;;
2022/09/29 04:35:58;;;;;;;1.4;1.3;;;;;;;7.98;100;93875.81;;;;
2022/09/29 04:37:00;;;;;;;1.4;1.3;;;;;;;7.98;100;93875.81;;;;
2022/09/29 04:38:01;;;;;;;1.4;1.3;;;;;;;7.98;100;93875.81;;;;
2022/09/29 04:39:01;;;;;;;1.4;1.3;;;;;;;7.98;100;93875.81;;;;
2022/09/29 04:40:02;;;;;;;2.1;1.65;;;;;;;7.98;100;93889.87;;;;
2022/09/29 04:41:04;;;;;;;2.1;1.65;;;;;;;7.98;100;93889.87;;;;
2022/09/29 04:42:04;;;;;;;2.1;1.65;;;;;;;7.98;100;93889.87;;;;
2022/09/29 04:43:05;;;;;;;2.1;1.65;;;;;;;7.98;100;93889.87;;;;
2022/09/29 04:44:06;;;;;;;2.1;1.65;;;;;;;7.98;100;93889.87;;;;
2022/09/29 04:45:06;;;;;;;2.1;1.65;;;;;;;7.98;100;93889.87;;;;
2022/09/29 04:46:07;;;;;;;2.1;1.65;;;;;;;7.98;100;93889.87;;;;
2022/09/29 04:47:09;;;;;;;2.1;1.65;;;;;;;7.98;100;93889.87;;;;
2022/09/29 04:48:09;;;;;;;2.1;1.65;;;;;;;7.98;100;93889.87;;;;
2022/09/29 04:49:10;;;;;;;2.1;1.65;;;;;;;7.98;100;93889.87;;;;
2022/09/29 04:50:10;;;;;;;2.1;1.65;;;;;;;7.98;100;93889.87;;;;
2022/09/29 04:51:11;;;;;;;2.1;1.65;;;;;;;7.98;100;93889.87;;;;
2022/09/29 04:52:11;;;;;;;2.1;1.65;;;;;;;7.98;100;93889.87;;;;
2022/09/29 04:53:12;;;;;;;2.1;1.65;;;;;;;7.98;100;93889.87;;;;
2022/09/29 04:54:13;;;;;;;2.1;1.65;;;;;;;7.98;100;93889.87;;;;
2022/09/29 04:55:13;;;;;;;2.1;1.65;;;;;;;7.98;100;93889.87;;;;
2022/09/29 04:56:14;;;;;;;2.1;1.65;;;;;;;7.98;100;93889.87;;;;
2022/09/29 04:57:15;;;;;;;2.1;1.65;;;;;;;7.98;100;93889.87;;;;
2022/09/29 04:58:16;;;;;;;2.1;1.65;;;;;;;7.98;100;93889.87;;;;
2022/09/29 04:59:16;;;;;;;2.1;1.65;;;;;;;7.98;100;93889.87;;;;
2022/09/29 05:00:17;;;;;;;2.1;1.65;;;;;;;7.98;100;93889.87;;;;
2022/09/29 05:01:17;;;;;;;1.6;1.5;;;;;;;7.7;100;93863.36;;;;
2022/09/29 05:02:18;;;;;;;1.6;1.5;;;;;;;7.7;100;93863.36;;;;
2022/09/29 05:03:19;;;;;;;1.6;1.5;;;;;;;7.7;100;93863.36;;;;
2022/09/29 05:04:19;;;;;;;1.6;1.5;;;;;;;7.7;100;93863.36;;;;
2022/09/29 05:05:20;;;;;;;1.6;1.5;;;;;;;7.7;100;93863.36;;;;
2022/09/29 05:06:21;;;;;;;1.6;1.5;;;;;;;7.7;100;93863.36;;;;
2022/09/29 05:07:21;;;;;;;1.6;1.5;;;;;;;7.7;100;93863.36;;;;
2022/09/29 05:08:22;;;;;;;1.6;1.5;;;;;;;7.7;100;93863.36;;;;
2022/09/29 05:09:22;;;;;;;1.6;1.5;;;;;;;7.7;100;93863.36;;;;
2022/09/29 05:10:23;;;;;;;1.6;1.5;;;;;;;7.7;100;93863.36;;;;
2022/09/29 05:11:24;;;;;;;1.6;1.5;;;;;;;7.7;100;93863.36;;;;
2022/09/29 05:12:24;;;;;;;1.9;1.7;;;;;;;7.55;100;93866.58;;;;
2022/09/29 05:13:25;;;;;;;1.9;1.7;;;;;;;7.55;100;93866.58;;;;
2022/09/29 05:14:25;;;;;;;1.9;1.7;;;;;;;7.55;100;93866.58;;;;
2022/09/29 05:15:26;;;;;;;1.9;1.7;;;;;;;7.55;100;93866.58;;;;
2022/09/29 05:16:26;;;;;;;1.9;1.7;;;;;;;7.55;100;93866.58;;;;
2022/09/29 05:17:27;;;;;;;1.9;1.7;;;;;;;7.55;100;93866.58;;;;
2022/09/29 05:18:27;;;;;;;1.9;1.7;;;;;;;7.55;100;93866.58;;;;
2022/09/29 05:19:30;;;;;;;1.9;1.7;;;;;;;7.55;100;93866.58;;;;
2022/09/29 05:20:31;;;;;;;1.9;1.7;;;;;;;7.55;100;93866.58;;;;
2022/09/29 05:21:32;;;;;;;1.9;1.7;;;;;;;7.55;100;93866.58;;;;
2022/09/29 05:22:32;;;;;;;1.8;1.7;;;;;;;7.44;100;93858.95;;;;
2022/09/29 05:23:32;;;;;;;1.8;1.7;;;;;;;7.44;100;93858.95;;;;
2022/09/29 05:24:34;;;;;;;1.8;1.7;;;;;;;7.44;100;93858.95;;;;
2022/09/29 05:25:34;;;;;;;1.8;1.7;;;;;;;7.44;100;93858.95;;;;
2022/09/29 05:26:36;;;;;;;1.8;1.7;;;;;;;7.44;100;93858.95;;;;
2022/09/29 05:27:36;;;;;;;1.8;1.7;;;;;;;7.44;100;93858.95;;;;
2022/09/29 05:28:38;;;;;;;1.8;1.7;;;;;;;7.44;100;93858.95;;;;
2022/09/29 05:29:43;;;;;;;1.8;1.7;;;;;;;7.44;100;93858.95;;;;
2022/09/29 05:30:44;;;;;;;1.8;1.7;;;;;;;7.44;100;93858.95;;;;
2022/09/29 05:31:44;;;;;;;1.8;1.7;;;;;;;7.44;100;93858.95;;;;
2022/09/29 05:32:45;;;;;;;1.8;1.7;;;;;;;7.44;100;93858.95;;;;
2022/09/29 05:33:46;;;;;;;1.65;1.55;;;;;;;7.39;100;93869.34;;;;
2022/09/29 05:34:46;;;;;;;1.65;1.55;;;;;;;7.39;100;93869.34;;;;
2022/09/29 05:35:47;;;;;;;1.65;1.55;;;;;;;7.39;100;93869.34;;;;
2022/09/29 05:36:47;;;;;;;1.65;1.55;;;;;;;7.39;100;93869.34;;;;
2022/09/29 05:37:49;;;;;;;1.65;1.55;;;;;;;7.39;100;93869.34;;;;
2022/09/29 05:38:49;;;;;;;1.65;1.55;;;;;;;7.39;100;93869.34;;;;
2022/09/29 05:39:50;;;;;;;1.65;1.55;;;;;;;7.39;100;93869.34;;;;
2022/09/29 05:40:51;;;;;;;1.65;1.55;;;;;;;7.39;100;93869.34;;;;
2022/09/29 05:41:52;;;;;;;1.65;1.55;;;;;;;7.39;100;93869.34;;;;
2022/09/29 05:42:52;;;;;;;1.65;1.55;;;;;;;7.39;100;93869.34;;;;
2022/09/29 05:43:53;;;;;;;2.6;2.1;;;;;;;7.38;100;93849.36;;;;
2022/09/29 05:44:54;;;;;;;2.6;2.1;;;;;;;7.38;100;93849.36;;;;
2022/09/29 05:45:55;;;;;;;2.6;2.1;;;;;;;7.38;100;93849.36;;;;
2022/09/29 05:46:58;;;;;;;2.6;2.1;;;;;;;7.38;100;93849.36;;;;
2022/09/29 05:47:59;;;;;;;2.6;2.1;;;;;;;7.38;100;93849.36;;;;
2022/09/29 05:49:00;;;;;;;2.6;2.1;;;;;;;7.38;100;93849.36;;;;
2022/09/29 05:50:02;;;;;;;2.6;2.1;;;;;;;7.38;100;93849.36;;;;
2022/09/29 05:51:03;;;;;;;2.6;2.1;;;;;;;7.38;100;93849.36;;;;
2022/09/29 05:52:08;;;;;;;2.6;2.1;;;;;;;7.38;100;93849.36;;;;
2022/09/29 05:53:08;;;;;;;2.6;2.1;;;;;;;7.38;100;93849.36;;;;
2022/09/29 05:54:09;;;;;;;2.6;2.1;;;;;;;7.38;100;93849.36;;;;
2022/09/29 05:55:10;;;;;;;3.1;2.65;;;;;;;7.45;100;93857.53;;;;
2022/09/29 05:56:11;;;;;;;3.1;2.65;;;;;;;7.45;100;93857.53;;;;
2022/09/29 05:57:13;;;;;;;3.1;2.65;;;;;;;7.45;100;93857.53;;;;
2022/09/29 05:58:14;;;;;;;3.1;2.65;;;;;;;7.45;100;93857.53;;;;
2022/09/29 05:59:14;;;;;;;3.1;2.65;;;;;;;7.45;100;93857.53;;;;
2022/09/29 06:00:15;;;;;;;3.1;2.65;;;;;;;7.45;100;93857.53;;;;
2022/09/29 06:01:16;;;;;;;3.1;2.65;;;;;;;7.45;100;93857.53;;;;
2022/09/29 06:02:18;;;;;;;3.1;2.65;;;;;;;7.45;100;93857.53;;;;
2022/09/29 06:03:18;;;;;;;3.1;2.65;;;;;;;7.45;100;93857.53;;;;
2022/09/29 06:04:19;;;;;;;3.1;2.65;;;;;;;7.45;100;93857.53;;;;
2022/09/29 06:05:19;;;;;;;3.9;3.1;;;;;;;7.75;100;93855.58;;;;
2022/09/29 06:06:20;;;;;;;3.9;3.1;;;;;;;7.75;100;93855.58;;;;
2022/09/29 06:07:23;;;;;;;3.9;3.1;;;;;;;7.75;100;93855.58;;;;
2022/09/29 06:08:23;;;;;;;3.9;3.1;;;;;;;7.75;100;93855.58;;;;
2022/09/29 06:09:24;;;;;;;3.9;3.1;;;;;;;7.75;100;93855.58;;;;
2022/09/29 06:10:24;;;;;;;3.9;3.1;;;;;;;7.75;100;93855.58;;;;
2022/09/29 06:11:26;;;;;;;3.9;3.1;;;;;;;7.75;100;93855.58;;;;
2022/09/29 06:12:28;;;;;;;3.9;3.1;;;;;;;7.75;100;93855.58;;;;
2022/09/29 06:13:33;;;;;;;3.9;3.1;;;;;;;7.75;100;93855.58;;;;
2022/09/29 06:14:37;;;;;;;3.9;3.1;;;;;;;7.75;100;93855.58;;;;
2022/09/29 06:15:37;;;;;;;4.05;3.4;;;;;;;8.06;100;93854;;;;
2022/09/29 06:16:38;;;;;;;4.05;3.4;;;;;;;8.06;100;93854;;;;
2022/09/29 06:17:38;;;;;;;4.05;3.4;;;;;;;8.06;100;93854;;;;
2022/09/29 06:18:39;;;;;;;4.05;3.4;;;;;;;8.06;100;93854;;;;
2022/09/29 06:19:40;;;;;;;4.05;3.4;;;;;;;8.06;100;93854;;;;
2022/09/29 06:20:40;;;;;;;4.05;3.4;;;;;;;8.06;100;93854;;;;
2022/09/29 06:21:41;;;;;;;4.05;3.4;;;;;;;8.06;100;93854;;;;
2022/09/29 06:22:41;;;;;;;4.05;3.4;;;;;;;8.06;100;93854;;;;
2022/09/29 06:23:42;;;;;;;4.05;3.4;;;;;;;8.06;100;93854;;;;
2022/09/29 06:24:42;;;;;;;4.05;3.4;;;;;;;8.06;100;93854;;;;
2022/09/29 06:25:43;;;;;;;4.05;3.4;;;;;;;8.06;100;93854;;;;
2022/09/29 06:26:43;;;;;;;3.999999;3.25;;;;;;;8.35;100;93854.41;;;;
2022/09/29 06:27:44;;;;;;;3.999999;3.25;;;;;;;8.35;100;93854.41;;;;
2022/09/29 06:28:44;;;;;;;3.999999;3.25;;;;;;;8.35;100;93854.41;;;;
2022/09/29 06:29:45;;;;;;;3.999999;3.25;;;;;;;8.35;100;93854.41;;;;
2022/09/29 06:30:45;;;;;;;3.999999;3.25;;;;;;;8.35;100;93854.41;;;;
2022/09/29 06:31:46;;;;;;;3.999999;3.25;;;;;;;8.35;100;93854.41;;;;
2022/09/29 06:32:46;;;;;;;3.999999;3.25;;;;;;;8.35;100;93854.41;;;;
2022/09/29 06:33:47;;;;;;;3.999999;3.25;;;;;;;8.35;100;93854.41;;;;
2022/09/29 06:39:59;;;;;;;3.999999;3.25;;;;;;;8.35;100;93854.41;;;;
2022/09/29 06:41:00;;;;;;;3.999999;3.25;;;;;;;8.35;100;93854.41;;;;
2022/09/29 06:42:00;;;;;;;3.999999;3.25;;;;;;;8.35;100;93854.41;;;;
2022/09/29 06:43:01;;;;;;;3.999999;3.25;;;;;;;8.35;100;93854.41;;;;
2022/09/29 06:44:02;;;;;;;3.999999;3.25;;;;;;;8.35;100;93854.41;;;;
2022/09/29 06:45:03;;;;;;;3.999999;3.25;;;;;;;8.35;100;93854.41;;;;